Tyrone, Georgia
Current Conditions -  °F | °C
As of 12:53 PM on Monday 24 Nov 2014 (Local Time) from KFFC Reporting Station
Clear Clear  
Wind Chill: 73°   Ceiling: Unl
Heat Index: 73°   Visibility: 10mi
Dew Point: 56°   Wind: 12mph
Humidity: 55%   Direction: 230°SW
Pressure: 29.81"   Gusts: 20mph
Location:  33.47°N, 84.6°W
Report Text: KFFC 241753Z AUTO 23010G17KT 190V260 10SM CLR 23/13 A2981 RMK AO2 SLP090 T02280133 10233 20167 58007
Loading
Personal Weather Stations






























Interactive Weather Map New forecast layout! Learn more

10-Day Weather Forecast

Advertisements
Track Severe Weather on mobile